createdAt,value
2022-09-03T00:01:01.586Z,12.23
2022-09-03T00:03:35.838Z,12.40
2022-09-03T00:06:11.513Z,12.68
2022-09-03T00:08:45.454Z,12.10
2022-09-03T00:11:18.915Z,11.07
2022-09-03T00:13:52.270Z,12.93
2022-09-03T00:16:24.437Z,12.85
2022-09-03T00:18:57.278Z,13.75
2022-09-03T00:21:37.928Z,12.63
2022-09-03T00:24:14.143Z,12.73
2022-09-03T00:26:48.909Z,12.75
2022-09-03T00:29:19.838Z,11.77
2022-09-03T00:31:51.711Z,11.02
2022-09-03T00:34:25.419Z,13.25
2022-09-03T00:36:53.937Z,12.13
2022-09-03T00:39:23.855Z,13.73
2022-09-03T00:42:08.147Z,13.35
2022-09-03T00:45:03.067Z,12.15
2022-09-03T00:47:42.413Z,12.48
2022-09-03T00:50:16.310Z,12.93
2022-09-03T00:52:53.066Z,12.50
2022-09-03T00:55:32.599Z,12.52
2022-09-03T00:58:15.068Z,10.85
2022-09-03T01:00:45.124Z,12.77
2022-09-03T01:03:25.122Z,10.93
2022-09-03T01:06:13.807Z,12.07
2022-09-03T01:08:57.665Z,12.10
2022-09-03T01:11:33.657Z,11.55
2022-09-03T01:14:10.424Z,11.48
2022-09-03T01:16:45.681Z,11.63
2022-09-03T01:19:35.657Z,12.30
2022-09-03T01:22:23.501Z,10.68
2022-09-03T01:25:15.182Z,11.98
2022-09-03T01:27:54.295Z,11.50
2022-09-03T01:30:24.085Z,11.02
2022-09-03T01:33:00.062Z,10.60
2022-09-03T01:35:34.946Z,10.55
2022-09-03T01:38:20.669Z,10.55
2022-09-03T01:40:57.149Z,10.85
2022-09-03T01:46:13.919Z,10.32
2022-09-03T01:48:50.455Z,10.13
2022-09-03T01:51:21.394Z,10.48
2022-09-03T01:54:21.731Z,10.02
2022-09-03T01:57:17.234Z,11.23
2022-09-03T02:00:02.630Z,9.48
2022-09-03T02:02:33.089Z,9.52
2022-09-03T02:05:02.421Z,9.57
2022-09-03T02:07:34.671Z,8.82
2022-09-03T02:10:03.952Z,9.90
2022-09-03T02:12:34.691Z,9.02
2022-09-03T02:15:04.738Z,8.50
2022-09-03T02:17:35.559Z,9.13
2022-09-03T02:20:07.605Z,10.07
2022-09-03T02:22:35.906Z,7.38
2022-09-03T02:25:03.674Z,7.95
2022-09-03T02:27:32.107Z,7.90
2022-09-03T02:30:00.784Z,8.27
2022-09-03T02:32:29.243Z,7.57
2022-09-03T02:34:59.042Z,7.28
2022-09-03T02:37:26.999Z,7.80
2022-09-03T02:39:54.868Z,7.05
2022-09-03T02:42:22.638Z,6.55
2022-09-03T02:44:54.537Z,6.47
2022-09-03T02:47:24.658Z,5.72
2022-09-03T02:49:52.353Z,6.35
2022-09-03T02:52:21.368Z,6.80
2022-09-03T02:54:49.110Z,5.47
2022-09-03T02:57:27.313Z,6.40
2022-09-03T02:59:55.917Z,6.45
2022-09-03T03:02:23.746Z,6.15
2022-09-03T03:04:51.483Z,4.95
2022-09-03T03:07:19.219Z,5.28
2022-09-03T03:09:48.259Z,5.60
2022-09-03T03:12:17.342Z,5.40
2022-09-03T03:14:45.027Z,5.13
2022-09-03T03:17:12.704Z,5.22
2022-09-03T03:19:40.366Z,5.43
2022-09-03T03:22:08.073Z,4.80
2022-09-03T03:24:36.869Z,5.50
2022-09-03T03:27:08.217Z,5.10
2022-09-03T03:29:36.263Z,4.63
2022-09-03T03:32:04.350Z,5.13
2022-09-03T03:34:32.030Z,5.60
2022-09-03T03:37:00.150Z,4.57
2022-09-03T03:39:27.870Z,4.28
2022-09-03T03:41:57.012Z,4.47
2022-09-03T03:44:26.285Z,4.95
2022-09-03T03:46:53.978Z,4.13
2022-09-03T03:49:21.677Z,4.13
2022-09-03T03:51:49.394Z,4.45
2022-09-03T03:54:17.651Z,4.15
2022-09-03T03:56:46.870Z,4.20
2022-09-03T03:59:23.235Z,3.47
2022-09-03T04:01:52.455Z,3.88
2022-09-03T04:04:20.181Z,4.30
2022-09-03T04:06:47.909Z,4.57
2022-09-03T04:09:15.554Z,3.88
2022-09-03T04:11:43.237Z,3.42
2022-09-03T04:14:10.912Z,3.90
2022-09-03T04:16:38.651Z,3.63
2022-09-03T04:19:07.746Z,3.80
2022-09-03T04:21:36.521Z,3.95
2022-09-03T04:24:06.481Z,3.70
2022-09-03T04:26:34.754Z,4.03
2022-09-03T04:29:05.205Z,3.80
2022-09-03T04:31:33.683Z,3.45
2022-09-03T04:34:01.677Z,2.83
2022-09-03T04:36:32.050Z,3.05
2022-09-03T04:39:01.639Z,3.30
2022-09-03T04:41:31.461Z,2.75
2022-09-03T04:44:01.192Z,2.65
2022-09-03T04:46:33.506Z,3.20
2022-09-03T04:49:02.289Z,2.42
2022-09-03T04:51:31.801Z,2.88
2022-09-03T04:54:01.283Z,3.90
2022-09-03T04:56:31.106Z,3.40
2022-09-03T04:59:01.452Z,3.60
2022-09-03T05:01:31.745Z,3.22
2022-09-03T05:04:00.296Z,3.17
2022-09-03T05:06:29.294Z,3.45
2022-09-03T05:08:59.246Z,3.80
2022-09-03T05:11:28.293Z,3.13
2022-09-03T05:13:58.323Z,3.17
2022-09-03T05:16:28.412Z,3.97
2022-09-03T05:18:59.175Z,3.47
2022-09-03T05:21:27.624Z,3.45
2022-09-03T05:23:55.665Z,4.28
2022-09-03T05:26:26.581Z,3.97
2022-09-03T05:28:56.297Z,4.38
2022-09-03T05:31:26.387Z,4.15
2022-09-03T05:33:57.801Z,4.25
2022-09-03T05:36:27.229Z,4.05
2022-09-03T05:38:55.190Z,4.95
2022-09-03T05:41:24.930Z,4.70
2022-09-03T05:43:55.235Z,3.90
2022-09-03T05:46:31.445Z,4.10
2022-09-03T05:49:00.220Z,5.10
2022-09-03T05:51:28.087Z,4.35
2022-09-03T05:53:56.463Z,4.32
2022-09-03T05:56:27.442Z,4.20
2022-09-03T05:58:57.610Z,3.78
2022-09-03T06:01:26.986Z,3.65
2022-09-03T06:03:55.986Z,4.10
2022-09-03T06:06:25.929Z,4.38
2022-09-03T06:08:55.097Z,3.70
2022-09-03T06:11:26.655Z,4.50
2022-09-03T06:13:56.323Z,3.72
2022-09-03T06:16:30.766Z,4.10
2022-09-03T06:18:59.853Z,4.60
2022-09-03T06:21:27.678Z,4.13
2022-09-03T06:23:58.528Z,4.30
2022-09-03T06:26:29.203Z,4.10
2022-09-03T06:28:59.986Z,3.95
2022-09-03T06:31:28.252Z,3.92
2022-09-03T06:33:59.692Z,3.35
2022-09-03T06:36:30.276Z,3.20
2022-09-03T06:38:58.549Z,3.30
2022-09-03T06:41:32.749Z,3.55
2022-09-03T06:44:03.603Z,3.45
2022-09-03T06:46:33.446Z,2.97
2022-09-03T06:49:01.145Z,2.95
2022-09-03T06:51:30.402Z,2.97
2022-09-03T06:54:01.749Z,2.67
2022-09-03T06:56:29.635Z,2.67
2022-09-03T06:58:58.958Z,2.88
2022-09-03T07:01:31.656Z,2.58
2022-09-03T07:04:01.406Z,2.97
2022-09-03T07:06:32.254Z,2.33
2022-09-03T07:09:00.260Z,2.30
2022-09-03T07:11:33.251Z,2.20
2022-09-03T07:14:01.454Z,2.22
2022-09-03T07:16:31.938Z,2.33
2022-09-03T07:19:00.963Z,2.10
2022-09-03T07:21:30.326Z,2.45
2022-09-03T07:23:58.609Z,1.83
2022-09-03T07:26:28.026Z,2.15
2022-09-03T07:28:56.345Z,2.05
2022-09-03T07:31:26.033Z,1.95
2022-09-03T07:33:56.662Z,1.60
2022-09-03T07:36:26.882Z,1.58
2022-09-03T07:38:57.210Z,2.03
2022-09-03T07:41:28.755Z,2.45
2022-09-03T07:43:57.494Z,2.20
2022-09-03T07:46:27.691Z,1.52
2022-09-03T07:48:58.524Z,1.60
2022-09-03T07:51:28.367Z,1.52
2022-09-03T07:53:58.247Z,1.77
2022-09-03T07:56:26.976Z,2.33
2022-09-03T07:58:55.490Z,1.70
2022-09-03T08:01:24.749Z,2.22
2022-09-03T08:03:54.346Z,1.48
2022-09-03T08:06:25.795Z,1.95
2022-09-03T08:09:00.754Z,1.73
2022-09-03T08:11:31.436Z,2.13
2022-09-03T08:14:02.727Z,1.45
2022-09-03T08:16:32.131Z,1.55
2022-09-03T08:19:00.487Z,1.85
2022-09-03T08:21:29.906Z,1.50
2022-09-03T08:24:02.560Z,2.00
2022-09-03T08:26:31.986Z,1.50
2022-09-03T08:29:00.012Z,1.40
2022-09-03T08:31:29.281Z,1.38
2022-09-03T08:33:58.344Z,1.40
2022-09-03T08:36:27.869Z,1.35
2022-09-03T08:38:58.165Z,1.30
2022-09-03T08:41:39.131Z,1.63
2022-09-03T08:44:24.839Z,1.40
2022-09-03T08:46:56.935Z,1.42
2022-09-03T08:49:30.003Z,1.60
2022-09-03T08:52:03.514Z,1.30
2022-09-03T08:54:33.575Z,1.70
2022-09-03T08:57:03.331Z,1.42
2022-09-03T08:59:33.176Z,1.45
2022-09-03T09:02:19.630Z,1.20
2022-09-03T09:04:58.460Z,1.42
2022-09-03T09:07:32.322Z,1.50
2022-09-03T09:10:10.770Z,1.50
2022-09-03T09:12:48.719Z,1.50
2022-09-03T09:15:27.953Z,1.77
2022-09-03T09:18:07.374Z,1.35
2022-09-03T09:20:42.646Z,1.23
2022-09-03T09:23:15.503Z,1.73
2022-09-03T09:25:49.360Z,1.40
2022-09-03T09:28:20.246Z,1.58
2022-09-03T09:30:50.543Z,1.33
2022-09-03T09:33:20.238Z,1.40
2022-09-03T09:35:48.975Z,1.45
2022-09-03T09:38:17.171Z,1.45
2022-09-03T09:40:46.523Z,1.58
2022-09-03T09:43:16.213Z,1.40
2022-09-03T09:45:46.086Z,1.27
2022-09-03T09:48:26.310Z,1.30
2022-09-03T09:51:05.274Z,1.00
2022-09-03T09:53:32.957Z,1.30
2022-09-03T09:56:03.471Z,1.50
2022-09-03T09:58:33.057Z,1.50
2022-09-03T10:01:04.371Z,1.60
2022-09-03T10:03:35.593Z,1.20
2022-09-03T10:06:21.302Z,1.40
2022-09-03T10:08:49.416Z,1.30
2022-09-03T10:11:21.416Z,1.40
2022-09-03T10:13:50.788Z,1.38
2022-09-03T10:16:28.080Z,1.55
2022-09-03T10:19:06.236Z,1.35
2022-09-03T10:21:40.554Z,1.52
2022-09-03T10:24:30.962Z,1.42
2022-09-03T10:26:59.994Z,1.23
2022-09-03T10:29:30.294Z,1.70
2022-09-03T10:32:10.100Z,1.40
2022-09-03T10:34:48.691Z,1.33
2022-09-03T10:37:24.569Z,1.50
2022-09-03T10:40:13.083Z,1.58
2022-09-03T10:42:47.744Z,1.30
2022-09-03T10:45:22.355Z,1.67
2022-09-03T10:48:08.627Z,1.50
2022-09-03T10:50:45.402Z,1.45
2022-09-03T10:53:25.675Z,1.63
2022-09-03T10:56:01.439Z,1.65
2022-09-03T10:58:55.335Z,1.38
2022-09-03T11:01:30.260Z,1.50
2022-09-03T11:04:14.308Z,1.38
2022-09-03T11:06:49.714Z,2.00
2022-09-03T11:09:22.348Z,1.93
2022-09-03T11:11:54.672Z,1.63
2022-09-03T11:14:34.357Z,1.40
2022-09-03T11:17:07.046Z,1.30
2022-09-03T11:19:37.722Z,1.50
2022-09-03T11:22:08.714Z,1.40
2022-09-03T11:24:41.054Z,1.33
2022-09-03T11:27:23.729Z,1.20
2022-09-03T11:30:01.158Z,1.35
2022-09-03T11:32:42.288Z,1.20
2022-09-03T11:35:15.954Z,1.17
2022-09-03T11:37:54.005Z,1.20
2022-09-03T11:40:26.870Z,1.30
2022-09-03T11:42:54.540Z,1.15
2022-09-03T11:45:35.727Z,1.50
2022-09-03T11:48:03.679Z,1.27
2022-09-03T11:50:32.650Z,1.23
2022-09-03T11:53:10.161Z,1.30
2022-09-03T11:55:54.314Z,1.42
2022-09-03T11:58:27.383Z,1.38
2022-09-03T12:00:57.146Z,1.50
2022-09-03T12:03:29.153Z,1.73
2022-09-03T12:06:23.065Z,1.35
2022-09-03T12:09:07.892Z,1.40
2022-09-03T12:11:49.991Z,1.27
2022-09-03T12:14:23.507Z,1.85
2022-09-03T12:17:06.280Z,1.42
2022-09-03T12:19:42.285Z,1.67
2022-09-03T12:22:15.009Z,1.23
2022-09-03T12:24:44.394Z,1.58
2022-09-03T12:27:17.297Z,2.13
2022-09-03T12:29:56.263Z,2.03
2022-09-03T12:32:26.438Z,1.30
2022-09-03T12:34:54.574Z,1.40
2022-09-03T12:40:21.331Z,2.25
2022-09-03T12:42:50.529Z,1.50
2022-09-03T12:45:21.067Z,1.20
2022-09-03T12:47:50.727Z,2.30
2022-09-03T12:50:21.272Z,1.40
2022-09-03T12:52:51.905Z,1.52
2022-09-03T12:55:29.254Z,1.52
2022-09-03T12:58:04.541Z,1.60
2022-09-03T13:00:35.078Z,2.25
2022-09-03T13:03:10.070Z,4.05
2022-09-03T13:05:45.599Z,2.42
2022-09-03T13:08:19.737Z,1.83
2022-09-03T13:10:53.533Z,1.85
2022-09-03T13:13:25.159Z,2.03
2022-09-03T13:16:31.036Z,2.08
2022-09-03T13:19:06.462Z,1.88
2022-09-03T13:21:45.701Z,1.77
2022-09-03T13:24:29.130Z,2.05
2022-09-03T13:27:08.398Z,1.70
2022-09-03T13:29:46.269Z,2.30
2022-09-03T13:32:24.971Z,2.03
2022-09-03T13:34:58.172Z,2.00
2022-09-03T13:37:33.560Z,2.00
2022-09-03T13:40:11.046Z,1.55
2022-09-03T13:42:41.876Z,2.05
2022-09-03T13:45:22.094Z,2.42
2022-09-03T13:48:11.185Z,1.83
2022-09-03T13:50:45.290Z,1.60
2022-09-03T13:53:22.788Z,1.98
2022-09-03T13:55:55.710Z,1.40
2022-09-03T13:58:30.979Z,1.88
2022-09-03T14:01:14.505Z,1.55
2022-09-03T14:03:49.212Z,1.50
2022-09-03T14:06:30.915Z,4.70
2022-09-03T14:09:07.579Z,1.50
2022-09-03T14:11:48.067Z,1.70
2022-09-03T14:14:30.536Z,2.20
2022-09-03T14:17:04.982Z,1.98
2022-09-03T14:19:40.158Z,1.60
2022-09-03T14:22:15.687Z,2.53
2022-09-03T14:24:50.169Z,1.98
2022-09-03T14:27:25.914Z,2.17
2022-09-03T14:29:59.188Z,1.73
2022-09-03T14:32:36.751Z,2.00
2022-09-03T14:35:21.545Z,1.75
2022-09-03T14:38:25.959Z,1.63
2022-09-03T14:41:03.103Z,1.88
2022-09-03T14:43:53.097Z,1.92
2022-09-03T14:46:34.696Z,1.75
2022-09-03T14:49:17.673Z,2.25
2022-09-03T14:52:04.537Z,1.90
2022-09-03T14:54:46.748Z,1.63
2022-09-03T14:57:40.784Z,2.00
2022-09-03T15:00:18.557Z,1.60
2022-09-03T15:03:20.375Z,1.80
2022-09-03T15:05:54.964Z,1.50
2022-09-03T15:08:39.632Z,1.77
2022-09-03T15:11:18.402Z,1.80
2022-09-03T15:13:51.324Z,1.48
2022-09-03T15:16:35.986Z,1.70
2022-09-03T15:19:17.838Z,1.40
2022-09-03T15:22:03.756Z,1.58
2022-09-03T15:24:44.167Z,2.30
2022-09-03T15:27:34.000Z,1.70
2022-09-03T15:30:07.911Z,1.50
2022-09-03T15:33:00.670Z,1.80
2022-09-03T15:35:46.418Z,1.60
2022-09-03T15:38:22.982Z,1.40
2022-09-03T15:40:57.158Z,1.52
2022-09-03T15:43:30.144Z,1.77
2022-09-03T15:46:02.013Z,1.35
2022-09-03T15:48:39.234Z,2.38
2022-09-03T15:51:14.430Z,1.33
2022-09-03T15:53:51.230Z,1.57
2022-09-03T15:56:25.899Z,1.73
2022-09-03T15:59:03.880Z,1.50
2022-09-03T16:01:41.454Z,1.50
2022-09-03T16:04:28.852Z,1.63
2022-09-03T16:07:02.829Z,1.63
2022-09-03T16:10:20.271Z,1.90
2022-09-03T16:15:16.448Z,1.80
2022-09-03T16:17:53.603Z,1.48
2022-09-03T16:20:26.505Z,2.65
2022-09-03T16:23:04.778Z,2.50
2022-09-03T16:25:38.632Z,1.85
2022-09-03T16:28:15.013Z,1.58
2022-09-03T16:30:59.965Z,1.73
2022-09-03T16:33:38.316Z,1.60
2022-09-03T16:36:21.414Z,3.03
2022-09-03T16:39:00.080Z,3.30
2022-09-03T16:41:35.729Z,3.25
2022-09-03T16:44:13.211Z,2.50
2022-09-03T16:46:52.097Z,2.40
2022-09-03T16:49:38.413Z,2.50
2022-09-03T16:52:17.429Z,4.18
2022-09-03T16:54:59.411Z,5.65
2022-09-03T16:57:44.320Z,3.83
2022-09-03T17:00:14.676Z,2.45
2022-09-03T17:02:58.481Z,2.60
2022-09-03T17:05:46.123Z,2.40
2022-09-03T17:08:23.967Z,2.45
2022-09-03T17:13:49.689Z,2.80
2022-09-03T17:16:28.590Z,2.25
2022-09-03T17:19:08.266Z,2.70
2022-09-03T17:21:48.969Z,3.38
2022-09-03T17:24:38.896Z,4.70
2022-09-03T17:27:46.401Z,4.32
2022-09-03T17:30:25.688Z,2.88
2022-09-03T17:33:33.447Z,3.08
2022-09-03T17:36:12.052Z,2.40
2022-09-03T17:39:09.795Z,2.60
2022-09-03T17:41:46.525Z,2.42
2022-09-03T17:44:24.348Z,2.10
2022-09-03T17:47:06.814Z,2.00
2022-09-03T17:49:47.943Z,2.17
2022-09-03T17:52:27.949Z,2.30
2022-09-03T17:55:00.758Z,2.47
2022-09-03T17:57:32.782Z,2.20
2022-09-03T18:00:04.159Z,2.28
2022-09-03T18:02:36.179Z,2.20
2022-09-03T18:05:17.034Z,2.40
2022-09-03T18:07:53.333Z,2.03
2022-09-03T18:10:28.562Z,2.30
2022-09-03T18:13:05.719Z,1.83
2022-09-03T18:15:40.641Z,2.20
2022-09-03T18:18:18.283Z,3.05
2022-09-03T18:21:23.365Z,2.28
2022-09-03T18:24:19.469Z,2.55
2022-09-03T18:27:11.518Z,2.15
2022-09-03T18:30:05.073Z,2.28
2022-09-03T18:32:50.691Z,2.25
2022-09-03T18:35:36.535Z,2.30
2022-09-03T18:38:22.985Z,2.20
2022-09-03T18:41:22.672Z,1.90
2022-09-03T18:44:17.702Z,3.15
2022-09-03T18:50:26.982Z,2.25
2022-09-03T18:53:16.894Z,2.00
2022-09-03T18:56:18.976Z,2.30
2022-09-03T18:59:17.472Z,2.10
2022-09-03T19:02:03.126Z,2.50
2022-09-03T19:05:02.439Z,2.47
2022-09-03T19:07:53.660Z,2.55
2022-09-03T19:10:52.650Z,2.40
2022-09-03T19:13:50.877Z,2.50
2022-09-03T19:16:43.954Z,2.97
2022-09-03T19:19:55.775Z,2.33
2022-09-03T19:22:47.770Z,2.15
2022-09-03T19:25:34.182Z,2.20
2022-09-03T19:28:30.039Z,2.13
2022-09-03T19:31:29.809Z,2.22
2022-09-03T19:34:25.795Z,2.50
2022-09-03T19:37:21.817Z,2.20
2022-09-03T19:40:22.464Z,2.30
2022-09-03T19:43:17.942Z,2.10
2022-09-03T19:46:13.335Z,2.15
2022-09-03T19:49:14.956Z,2.08
2022-09-03T19:52:11.692Z,2.47
2022-09-03T19:54:58.698Z,2.30
2022-09-03T19:57:45.689Z,1.98
2022-09-03T20:00:33.356Z,2.35
2022-09-03T20:03:20.361Z,2.50
2022-09-03T20:06:10.998Z,2.47
2022-09-03T20:08:57.246Z,2.67
2022-09-03T20:11:27.673Z,2.20
2022-09-03T20:14:16.129Z,2.58
2022-09-03T20:17:01.402Z,2.42
2022-09-03T20:19:41.024Z,2.40
2022-09-03T20:22:20.600Z,2.47
2022-09-03T20:25:08.338Z,2.65
2022-09-03T20:27:47.861Z,2.30
2022-09-03T20:30:19.437Z,2.83
2022-09-03T20:33:08.787Z,2.70
2022-09-03T20:35:49.765Z,2.58
2022-09-03T20:38:48.458Z,2.40
2022-09-03T20:41:24.283Z,2.60
2022-09-03T20:44:14.279Z,2.72
2022-09-03T20:46:55.982Z,2.50
2022-09-03T20:49:38.135Z,2.58
2022-09-03T20:52:12.248Z,2.55
2022-09-03T20:54:48.844Z,2.38
2022-09-03T20:57:30.518Z,2.53
2022-09-03T21:00:06.817Z,2.55
2022-09-03T21:05:33.714Z,2.58
2022-09-03T21:08:13.285Z,3.10
2022-09-03T21:10:50.699Z,2.45
2022-09-03T21:13:31.239Z,2.55
2022-09-03T21:16:13.662Z,2.90
2022-09-03T21:18:51.328Z,2.47
2022-09-03T21:21:27.411Z,2.90
2022-09-03T21:24:03.881Z,2.72
2022-09-03T21:26:42.319Z,2.42
2022-09-03T21:29:18.442Z,2.90
2022-09-03T21:31:53.811Z,2.33
2022-09-03T21:34:27.379Z,3.00
2022-09-03T21:36:57.028Z,2.75
2022-09-03T21:39:29.653Z,2.95
2022-09-03T21:42:04.425Z,2.65
2022-09-03T21:44:46.086Z,2.53
2022-09-03T21:47:15.709Z,2.63
2022-09-03T21:49:57.843Z,2.83
2022-09-03T21:52:34.663Z,2.63
2022-09-03T21:57:40.860Z,2.67
2022-09-03T22:00:21.564Z,2.95
2022-09-03T22:02:50.628Z,2.75
2022-09-03T22:05:19.087Z,3.00
2022-09-03T22:08:05.786Z,3.03
2022-09-03T22:10:44.244Z,3.03
2022-09-03T22:13:22.258Z,3.63
2022-09-03T22:15:51.948Z,2.92
2022-09-03T22:18:28.703Z,3.20
2022-09-03T22:21:11.389Z,2.90
2022-09-03T22:23:55.213Z,3.05
2022-09-03T22:26:32.325Z,3.08
2022-09-03T22:29:08.694Z,3.28
2022-09-03T22:31:53.731Z,2.67
2022-09-03T22:34:44.740Z,3.20
2022-09-03T22:37:25.616Z,3.05
2022-09-03T22:39:58.455Z,2.92
2022-09-03T22:42:43.744Z,3.15
2022-09-03T22:45:29.348Z,3.65
2022-09-03T22:48:20.831Z,2.95
2022-09-03T22:50:57.027Z,3.33
2022-09-03T22:53:40.609Z,3.53
2022-09-03T22:56:10.856Z,3.00
2022-09-03T22:58:45.310Z,3.03
2022-09-03T23:01:23.925Z,3.60
2022-09-03T23:03:57.507Z,3.15
2022-09-03T23:06:32.439Z,3.30
2022-09-03T23:09:03.877Z,3.15
2022-09-03T23:11:36.232Z,3.95
2022-09-03T23:14:09.705Z,3.30
2022-09-03T23:16:43.334Z,2.80
2022-09-03T23:21:53.381Z,2.97
2022-09-03T23:24:28.002Z,3.05
2022-09-03T23:26:56.171Z,2.95
2022-09-03T23:29:29.105Z,3.17
2022-09-03T23:31:59.553Z,3.00
2022-09-03T23:34:28.510Z,2.78
2022-09-03T23:37:32.452Z,3.03
2022-09-03T23:40:22.273Z,3.45
2022-09-03T23:43:05.864Z,3.30
2022-09-03T23:45:43.060Z,2.83
2022-09-03T23:48:23.879Z,2.70
2022-09-03T23:51:04.827Z,3.13
2022-09-03T23:53:45.260Z,3.17
2022-09-03T23:56:33.199Z,2.80
2022-09-03T23:59:10.799Z,3.33
